createdAt,value
2019-06-26T00:00:07.124Z,24.30
2019-06-26T00:02:35.665Z,24.50
2019-06-26T00:05:04.643Z,24.70
2019-06-26T00:07:33.181Z,24.80
2019-06-26T00:10:01.712Z,24.80
2019-06-26T00:12:30.123Z,24.60
2019-06-26T00:14:58.834Z,24.80
2019-06-26T00:17:27.323Z,25.10
2019-06-26T00:19:55.833Z,25.10
2019-06-26T00:22:24.268Z,25.30
2019-06-26T00:24:52.755Z,25.30
2019-06-26T00:27:21.194Z,25.20
2019-06-26T00:29:49.729Z,25.30
2019-06-26T00:32:18.325Z,25.50
2019-06-26T00:34:46.839Z,25.70
2019-06-26T00:37:15.348Z,25.80
2019-06-26T00:39:45.289Z,25.80
2019-06-26T00:42:13.786Z,25.60
2019-06-26T00:44:42.045Z,25.40
2019-06-26T00:47:10.468Z,25.50
2019-06-26T00:49:38.930Z,25.60
2019-06-26T00:52:07.442Z,25.70
2019-06-26T00:54:35.943Z,25.60
2019-06-26T00:57:04.460Z,25.30
2019-06-26T00:59:32.774Z,25.20
2019-06-26T01:02:01.206Z,25.30
2019-06-26T01:04:31.137Z,25.40
2019-06-26T01:07:06.798Z,25.60
2019-06-26T01:09:35.264Z,25.20
2019-06-26T01:12:03.497Z,24.80
2019-06-26T01:14:32.028Z,24.40
2019-06-26T01:17:00.580Z,24.00
2019-06-26T01:19:29.102Z,23.80
2019-06-26T01:21:57.702Z,23.60
2019-06-26T01:24:26.084Z,23.40
2019-06-26T01:26:54.584Z,22.90
2019-06-26T01:29:23.104Z,22.60
2019-06-26T01:31:51.377Z,22.40
2019-06-26T01:34:19.712Z,21.90
2019-06-26T01:36:48.310Z,21.70
2019-06-26T01:39:16.846Z,21.30
2019-06-26T01:41:46.761Z,21.20
2019-06-26T01:44:16.264Z,21.00
2019-06-26T01:46:44.884Z,21.00
2019-06-26T01:49:13.742Z,20.70
2019-06-26T01:51:42.242Z,20.80
2019-06-26T01:54:10.917Z,20.80
2019-06-26T01:56:39.339Z,20.90
2019-06-26T01:59:07.675Z,21.10
2019-06-26T02:01:36.209Z,21.20
2019-06-26T02:04:04.706Z,21.20
2019-06-26T02:06:33.122Z,21.20
2019-06-26T02:09:01.512Z,21.20
2019-06-26T02:11:29.619Z,21.10
2019-06-26T02:13:58.027Z,21.20
2019-06-26T02:16:26.628Z,21.20
2019-06-26T02:18:56.526Z,21.20
2019-06-26T02:21:25.078Z,21.10
2019-06-26T02:23:53.330Z,21.10
2019-06-26T02:26:21.799Z,21.00
2019-06-26T02:28:50.322Z,20.90
2019-06-26T02:31:18.803Z,21.00
2019-06-26T02:33:47.285Z,21.00
2019-06-26T02:36:15.572Z,20.80
2019-06-26T02:38:44.036Z,20.70
2019-06-26T02:41:12.477Z,20.80
2019-06-26T02:43:42.405Z,20.60
2019-06-26T02:46:11.014Z,20.40
2019-06-26T02:48:39.581Z,20.20
2019-06-26T02:51:08.237Z,20.00
2019-06-26T02:53:36.761Z,19.90
2019-06-26T02:56:06.236Z,19.80
2019-06-26T02:58:34.638Z,19.80
2019-06-26T03:01:03.179Z,19.60
2019-06-26T03:03:31.701Z,19.40
2019-06-26T03:06:00.160Z,19.20
2019-06-26T03:08:28.665Z,19.10
2019-06-26T03:10:57.152Z,19.10
2019-06-26T03:13:26.156Z,19.10
2019-06-26T03:15:54.509Z,19.20
2019-06-26T03:18:22.952Z,19.00
2019-06-26T03:20:52.690Z,18.90
2019-06-26T03:23:21.097Z,18.90
2019-06-26T03:25:49.636Z,18.80
2019-06-26T03:28:17.936Z,18.80
2019-06-26T03:30:46.355Z,18.60
2019-06-26T03:33:14.855Z,18.60
2019-06-26T03:35:43.338Z,18.50
2019-06-26T03:38:11.665Z,18.60
2019-06-26T03:40:40.054Z,18.70
2019-06-26T03:43:08.592Z,18.70
2019-06-26T03:45:38.477Z,18.60
2019-06-26T03:48:06.933Z,18.50
2019-06-26T03:50:35.502Z,18.60
2019-06-26T03:53:03.969Z,18.40
2019-06-26T03:55:32.175Z,18.40
2019-06-26T03:58:00.717Z,18.30
2019-06-26T04:00:41.809Z,18.20
2019-06-26T04:03:10.372Z,18.10
2019-06-26T04:05:38.669Z,18.10
2019-06-26T04:08:07.754Z,18.00
2019-06-26T04:10:36.401Z,17.90
2019-06-26T04:13:04.824Z,17.90
2019-06-26T04:15:42.197Z,17.80
2019-06-26T04:18:03.546Z,17.70
2019-06-26T04:20:31.812Z,17.60
2019-06-26T04:23:00.247Z,17.70
2019-06-26T04:25:28.769Z,17.70
2019-06-26T04:27:57.778Z,17.70
2019-06-26T04:30:26.244Z,17.70
2019-06-26T04:32:54.795Z,17.60
2019-06-26T04:35:23.289Z,17.60
2019-06-26T04:37:51.924Z,17.60
2019-06-26T04:40:20.671Z,17.60
2019-06-26T04:42:49.514Z,17.60
2019-06-26T04:45:18.322Z,17.50
2019-06-26T04:47:48.330Z,17.40
2019-06-26T04:50:16.997Z,17.40
2019-06-26T04:52:45.269Z,17.40
2019-06-26T04:55:13.929Z,17.30
2019-06-26T04:57:42.475Z,17.20
2019-06-26T05:00:11.156Z,17.20
2019-06-26T05:02:39.473Z,17.10
2019-06-26T05:05:07.631Z,17.10
2019-06-26T05:07:35.993Z,17.20
2019-06-26T05:10:04.808Z,17.10
2019-06-26T05:12:33.317Z,17.10
2019-06-26T05:15:01.853Z,17.00
2019-06-26T05:17:30.132Z,17.00
2019-06-26T05:19:58.577Z,16.90
2019-06-26T05:22:27.035Z,16.90
2019-06-26T05:24:55.367Z,16.80
2019-06-26T05:27:23.754Z,16.80
2019-06-26T05:29:54.408Z,16.80
2019-06-26T05:32:22.378Z,16.80
2019-06-26T05:34:50.884Z,16.80
2019-06-26T05:37:19.240Z,16.80
2019-06-26T05:39:47.653Z,16.80
2019-06-26T05:42:16.101Z,16.80
2019-06-26T05:44:44.392Z,16.80
2019-06-26T05:47:12.868Z,16.70
2019-06-26T05:49:42.581Z,16.70
2019-06-26T05:52:11.047Z,16.80
2019-06-26T05:54:39.564Z,16.80
2019-06-26T05:57:07.969Z,16.90
2019-06-26T05:59:36.536Z,16.80
2019-06-26T06:02:05.031Z,16.80
2019-06-26T06:04:33.301Z,16.80
2019-06-26T06:07:01.574Z,16.80
2019-06-26T06:09:29.961Z,16.70
2019-06-26T06:11:58.521Z,16.60
2019-06-26T06:14:27.002Z,16.70
2019-06-26T06:16:55.402Z,16.60
2019-06-26T06:19:23.934Z,16.70
2019-06-26T06:21:52.409Z,16.70
2019-06-26T06:24:20.854Z,16.70
2019-06-26T06:26:49.357Z,16.70
2019-06-26T06:29:17.890Z,16.60
2019-06-26T06:31:46.292Z,16.50
2019-06-26T06:34:14.814Z,16.60
2019-06-26T06:36:43.329Z,16.70
2019-06-26T06:39:11.576Z,16.70
2019-06-26T06:41:43.213Z,16.60
2019-06-26T06:44:10.139Z,16.60
2019-06-26T06:46:38.618Z,16.60
2019-06-26T06:49:07.116Z,16.60
2019-06-26T06:51:37.064Z,16.60
2019-06-26T06:54:05.476Z,16.60
2019-06-26T06:56:34.017Z,16.60
2019-06-26T06:59:02.518Z,16.60
2019-06-26T07:01:30.917Z,16.40
2019-06-26T07:03:59.484Z,16.40
2019-06-26T07:06:27.878Z,16.50
2019-06-26T07:08:56.188Z,16.30
2019-06-26T07:11:24.631Z,16.10
2019-06-26T07:13:53.537Z,16.10
2019-06-26T07:16:21.851Z,16.00
2019-06-26T07:18:50.284Z,16.00
2019-06-26T07:21:18.612Z,15.90
2019-06-26T07:23:47.117Z,15.90
2019-06-26T07:26:15.550Z,15.90
2019-06-26T07:28:43.870Z,15.90
2019-06-26T07:31:12.268Z,15.80
2019-06-26T07:33:40.694Z,15.60
2019-06-26T07:36:09.300Z,15.50
2019-06-26T07:38:37.711Z,15.50
2019-06-26T07:41:06.384Z,15.40
2019-06-26T07:43:34.903Z,15.50
2019-06-26T07:46:03.238Z,15.40
2019-06-26T07:48:31.519Z,15.40
2019-06-26T07:50:59.858Z,15.30
2019-06-26T07:53:29.626Z,15.20
2019-06-26T07:55:58.352Z,15.20
2019-06-26T07:58:26.879Z,15.10
2019-06-26T08:00:55.593Z,15.00
2019-06-26T08:03:24.238Z,15.00
2019-06-26T08:05:52.629Z,15.00
2019-06-26T08:08:21.352Z,15.00
2019-06-26T08:10:49.748Z,15.00
2019-06-26T08:13:18.261Z,15.00
2019-06-26T08:15:46.755Z,15.20
2019-06-26T08:18:15.235Z,15.30
2019-06-26T08:20:55.445Z,15.30
2019-06-26T08:23:13.837Z,15.40
2019-06-26T08:25:42.200Z,15.40
2019-06-26T08:28:10.592Z,15.50
2019-06-26T08:30:39.205Z,15.50
2019-06-26T08:33:07.606Z,15.40
2019-06-26T08:35:35.855Z,15.40
2019-06-26T08:38:11.161Z,15.50
2019-06-26T08:40:34.306Z,15.40
2019-06-26T08:43:03.003Z,15.20
2019-06-26T08:45:31.522Z,15.20
2019-06-26T08:48:13.469Z,15.30
2019-06-26T08:50:30.274Z,15.20
2019-06-26T08:52:58.668Z,15.20
2019-06-26T08:55:28.558Z,15.30
2019-06-26T08:57:57.084Z,15.40
2019-06-26T09:00:25.528Z,15.40
2019-06-26T09:02:53.901Z,15.40
2019-06-26T09:05:22.311Z,15.30
2019-06-26T09:07:50.848Z,15.10
2019-06-26T09:10:19.298Z,15.00
2019-06-26T09:12:47.682Z,15.00
2019-06-26T09:15:16.232Z,14.90
2019-06-26T09:17:44.787Z,14.80
2019-06-26T09:20:13.251Z,14.60
2019-06-26T09:22:41.705Z,14.50
2019-06-26T09:25:21.689Z,14.40
2019-06-26T09:27:40.652Z,14.50
2019-06-26T09:30:09.353Z,14.30
2019-06-26T09:32:37.723Z,14.20
2019-06-26T09:35:06.570Z,14.30
2019-06-26T09:37:35.247Z,14.40
2019-06-26T09:40:03.903Z,14.50
2019-06-26T09:42:32.400Z,14.60
2019-06-26T09:45:00.954Z,14.60
2019-06-26T09:47:31.035Z,14.60
2019-06-26T09:49:59.507Z,14.60
2019-06-26T09:52:27.945Z,14.30
2019-06-26T09:54:56.406Z,14.20
2019-06-26T09:57:26.190Z,14.30
2019-06-26T09:59:54.481Z,14.40
2019-06-26T10:02:22.892Z,14.40
2019-06-26T10:04:51.408Z,14.40
2019-06-26T10:07:19.918Z,14.40
2019-06-26T10:09:48.404Z,14.30
2019-06-26T10:12:16.646Z,14.30
2019-06-26T10:14:47.736Z,14.40
2019-06-26T10:17:15.223Z,14.50
2019-06-26T10:19:43.720Z,14.40
2019-06-26T10:22:12.347Z,14.30
2019-06-26T10:24:40.926Z,14.20
2019-06-26T10:27:09.338Z,14.20
2019-06-26T10:29:37.846Z,14.10
2019-06-26T10:32:06.505Z,14.20
2019-06-26T10:34:34.850Z,14.20
2019-06-26T10:37:03.343Z,14.30
2019-06-26T10:39:31.930Z,14.40
2019-06-26T10:42:00.686Z,14.40
2019-06-26T10:44:29.200Z,14.20
2019-06-26T10:46:57.861Z,14.10
2019-06-26T10:49:27.724Z,14.10
2019-06-26T10:51:56.401Z,14.20
2019-06-26T10:54:24.937Z,14.40
2019-06-26T10:56:53.356Z,14.40
2019-06-26T10:59:23.429Z,14.50
2019-06-26T11:01:51.897Z,14.50
2019-06-26T11:04:20.613Z,14.50
2019-06-26T11:06:48.980Z,14.50
2019-06-26T11:09:17.465Z,14.60
2019-06-26T11:11:45.873Z,14.80
2019-06-26T11:14:14.411Z,14.90
2019-06-26T11:16:42.889Z,15.00
2019-06-26T11:19:11.348Z,15.00
2019-06-26T11:21:39.844Z,15.10
2019-06-26T11:24:08.135Z,15.10
2019-06-26T11:26:36.780Z,15.00
2019-06-26T11:29:05.293Z,15.10
2019-06-26T11:31:33.495Z,15.20
2019-06-26T11:34:01.997Z,15.20
2019-06-26T11:36:30.530Z,15.00
2019-06-26T11:38:58.951Z,14.80
2019-06-26T11:41:27.427Z,14.80
2019-06-26T11:43:55.956Z,14.70
2019-06-26T11:46:24.444Z,14.60
2019-06-26T11:48:52.504Z,14.60
2019-06-26T11:51:20.928Z,14.70
2019-06-26T11:53:49.430Z,14.80
2019-06-26T11:56:17.880Z,14.80
2019-06-26T11:58:46.421Z,14.80
2019-06-26T12:01:16.080Z,14.80
2019-06-26T12:03:44.416Z,14.80
2019-06-26T12:06:18.863Z,14.80
2019-06-26T12:08:42.961Z,14.80
2019-06-26T12:11:11.406Z,14.90
2019-06-26T12:13:40.009Z,14.80
2019-06-26T12:16:08.275Z,14.80
2019-06-26T12:18:36.803Z,14.70
2019-06-26T12:21:05.471Z,14.80
2019-06-26T12:23:34.111Z,14.70
2019-06-26T12:26:02.310Z,14.50
2019-06-26T12:28:30.872Z,14.60
2019-06-26T12:30:59.142Z,14.50
2019-06-26T12:33:27.742Z,14.50
2019-06-26T12:35:56.223Z,14.40
2019-06-26T12:38:24.727Z,14.50
2019-06-26T12:40:53.116Z,14.50
2019-06-26T12:43:21.353Z,14.50
2019-06-26T12:45:49.753Z,14.30
2019-06-26T12:48:18.264Z,14.40
2019-06-26T12:50:46.683Z,14.40
2019-06-26T12:53:15.141Z,14.50
2019-06-26T12:55:43.387Z,14.50
2019-06-26T12:58:14.976Z,14.50
2019-06-26T13:00:42.274Z,14.50
2019-06-26T13:03:12.014Z,14.50
2019-06-26T13:05:40.484Z,14.50
2019-06-26T13:08:08.997Z,14.50
2019-06-26T13:10:48.769Z,14.50
2019-06-26T13:13:07.764Z,14.60
2019-06-26T13:15:36.238Z,14.60
2019-06-26T13:18:04.764Z,14.60
2019-06-26T13:20:33.049Z,14.70
2019-06-26T13:23:01.688Z,14.70
2019-06-26T13:25:30.115Z,14.70
2019-06-26T13:27:58.676Z,14.80
2019-06-26T13:30:28.609Z,14.90
2019-06-26T13:32:56.909Z,15.00
2019-06-26T13:35:25.260Z,15.10
2019-06-26T13:37:53.858Z,15.00
2019-06-26T13:40:22.392Z,15.20
2019-06-26T13:42:50.773Z,15.40
2019-06-26T13:45:19.272Z,15.60
2019-06-26T13:47:47.674Z,15.70
2019-06-26T13:50:16.191Z,15.90
2019-06-26T13:52:44.709Z,16.00
2019-06-26T13:55:13.124Z,16.10
2019-06-26T13:57:41.634Z,16.10
2019-06-26T14:00:10.321Z,16.10
2019-06-26T14:02:38.812Z,16.20
2019-06-26T14:05:09.106Z,16.20
2019-06-26T14:07:37.590Z,16.40
2019-06-26T14:10:06.085Z,16.50
2019-06-26T14:12:34.609Z,16.60
2019-06-26T14:15:03.273Z,16.60
2019-06-26T14:17:31.787Z,16.80
2019-06-26T14:20:00.257Z,16.80
2019-06-26T14:22:28.752Z,16.90
2019-06-26T14:24:56.960Z,16.90
2019-06-26T14:27:25.504Z,16.70
2019-06-26T14:29:53.918Z,16.90
2019-06-26T14:32:22.437Z,16.80
2019-06-26T14:34:50.936Z,16.90
2019-06-26T14:37:19.347Z,17.00
2019-06-26T14:39:47.837Z,17.20
2019-06-26T14:42:16.325Z,17.30
2019-06-26T14:44:44.641Z,17.40
2019-06-26T14:47:13.109Z,17.20
2019-06-26T14:49:41.574Z,17.30
2019-06-26T14:52:10.093Z,17.30
2019-06-26T14:54:38.550Z,17.30
2019-06-26T14:57:06.938Z,17.30
2019-06-26T14:59:35.435Z,17.30
2019-06-26T15:02:03.983Z,17.40
2019-06-26T15:04:32.440Z,17.40
2019-06-26T15:07:02.189Z,17.60
2019-06-26T15:09:30.714Z,17.60
2019-06-26T15:11:59.364Z,17.50
2019-06-26T15:14:27.606Z,17.50
2019-06-26T15:16:55.821Z,17.50
2019-06-26T15:19:24.349Z,17.60
2019-06-26T15:21:58.406Z,17.90
2019-06-26T15:24:23.010Z,17.70
2019-06-26T15:26:50.876Z,17.70
2019-06-26T15:29:19.332Z,18.00
2019-06-26T15:31:47.580Z,18.20
2019-06-26T15:34:16.049Z,18.30
2019-06-26T15:36:44.564Z,18.50
2019-06-26T15:39:13.012Z,18.40
2019-06-26T15:41:41.501Z,18.50
2019-06-26T15:44:10.008Z,18.80
2019-06-26T15:46:38.162Z,18.90
2019-06-26T15:49:06.775Z,19.30
2019-06-26T15:51:35.186Z,18.70
2019-06-26T15:54:03.752Z,19.20
2019-06-26T15:56:32.130Z,19.60
2019-06-26T15:59:00.668Z,19.80
2019-06-26T16:01:29.148Z,20.10
2019-06-26T16:03:57.825Z,20.00
2019-06-26T16:06:26.349Z,19.60
2019-06-26T16:08:56.184Z,19.30
2019-06-26T16:11:24.728Z,19.30
2019-06-26T16:13:53.200Z,20.10
2019-06-26T16:16:21.696Z,20.50
2019-06-26T16:18:54.001Z,21.20
2019-06-26T16:21:22.523Z,22.00
2019-06-26T16:23:51.039Z,23.40
2019-06-26T16:26:19.495Z,24.40
2019-06-26T16:28:47.898Z,25.90
2019-06-26T16:31:16.433Z,26.90
2019-06-26T16:33:44.950Z,27.20
2019-06-26T16:36:13.347Z,27.50
2019-06-26T16:38:41.872Z,28.10
2019-06-26T16:41:11.388Z,28.30
2019-06-26T16:43:39.921Z,27.40
2019-06-26T16:46:08.585Z,27.20
2019-06-26T16:48:36.968Z,27.30
2019-06-26T16:51:05.492Z,27.20
2019-06-26T16:53:35.614Z,26.40
2019-06-26T16:56:03.896Z,26.10
2019-06-26T16:58:32.376Z,25.80
2019-06-26T17:01:00.886Z,26.00
2019-06-26T17:03:29.382Z,27.40
2019-06-26T17:05:57.627Z,28.90
2019-06-26T17:08:26.058Z,30.10
2019-06-26T17:10:56.002Z,31.30
2019-06-26T17:13:24.578Z,32.50
2019-06-26T17:15:53.346Z,33.00
2019-06-26T17:18:22.046Z,33.50
2019-06-26T17:20:50.581Z,33.20
2019-06-26T17:23:18.973Z,31.90
2019-06-26T17:25:47.228Z,30.70
2019-06-26T17:28:15.990Z,28.80
2019-06-26T17:30:44.707Z,27.50
2019-06-26T17:33:13.157Z,28.20
2019-06-26T17:35:41.576Z,29.00
2019-06-26T17:38:10.078Z,29.00
2019-06-26T17:40:38.418Z,28.40
2019-06-26T17:43:12.343Z,29.50
2019-06-26T17:45:37.017Z,29.50
2019-06-26T17:48:05.314Z,29.40
2019-06-26T17:50:33.750Z,29.90
2019-06-26T17:53:02.046Z,31.10
2019-06-26T17:55:30.432Z,31.40
2019-06-26T17:57:58.972Z,32.30
2019-06-26T18:00:28.617Z,33.20
2019-06-26T18:02:57.188Z,33.70
2019-06-26T18:05:25.669Z,34.40
2019-06-26T18:07:54.091Z,35.00
2019-06-26T18:10:22.419Z,35.20
2019-06-26T18:12:52.298Z,35.10
2019-06-26T18:15:20.842Z,34.30
2019-06-26T18:17:49.087Z,34.40
2019-06-26T18:20:17.546Z,34.60
2019-06-26T18:22:45.976Z,35.20
2019-06-26T18:25:16.566Z,34.40
2019-06-26T18:27:44.361Z,35.00
2019-06-26T18:30:13.085Z,34.10
2019-06-26T18:32:41.348Z,33.40
2019-06-26T18:35:10.067Z,34.00
2019-06-26T18:37:38.789Z,34.10
2019-06-26T18:40:07.889Z,34.70
2019-06-26T18:42:36.635Z,34.80
2019-06-26T18:45:05.581Z,34.80
2019-06-26T18:47:33.916Z,34.80
2019-06-26T18:50:02.403Z,35.30
2019-06-26T18:52:30.562Z,35.40
2019-06-26T18:54:58.912Z,35.20
2019-06-26T18:57:27.444Z,35.10
2019-06-26T18:59:55.724Z,32.70
2019-06-26T19:02:24.315Z,33.50
2019-06-26T19:04:54.212Z,34.40
2019-06-26T19:07:22.748Z,35.30
2019-06-26T19:09:51.272Z,35.30
2019-06-26T19:12:19.679Z,34.60
2019-06-26T19:14:49.437Z,33.90
2019-06-26T19:17:17.948Z,34.80
2019-06-26T19:19:46.544Z,35.40
2019-06-26T19:22:14.832Z,35.80
2019-06-26T19:24:43.393Z,36.20
2019-06-26T19:27:11.876Z,36.50
2019-06-26T19:29:40.263Z,35.70
2019-06-26T19:32:08.736Z,35.60
2019-06-26T19:34:37.174Z,35.30
2019-06-26T19:37:05.754Z,34.90
2019-06-26T19:39:34.282Z,34.80
2019-06-26T19:42:02.963Z,33.60
2019-06-26T19:44:31.372Z,33.80
2019-06-26T19:46:59.820Z,34.10
2019-06-26T19:49:28.339Z,33.50
2019-06-26T19:51:56.896Z,31.50
2019-06-26T19:54:27.861Z,31.40
2019-06-26T19:56:55.524Z,31.40
2019-06-26T19:59:23.904Z,30.30
2019-06-26T20:01:52.356Z,29.70
2019-06-26T20:04:21.024Z,29.20
2019-06-26T20:06:49.477Z,28.60
2019-06-26T20:09:18.026Z,28.00
2019-06-26T20:11:46.665Z,27.40
2019-06-26T20:14:15.168Z,26.90
2019-06-26T20:16:43.705Z,26.50
2019-06-26T20:19:11.933Z,26.30
2019-06-26T20:21:40.440Z,26.00
2019-06-26T20:24:08.949Z,25.60
2019-06-26T20:26:37.420Z,25.40
2019-06-26T20:29:05.887Z,25.50
2019-06-26T20:31:34.408Z,25.50
2019-06-26T20:34:02.644Z,25.40
2019-06-26T20:36:31.108Z,25.10
2019-06-26T20:38:59.437Z,25.00
2019-06-26T20:41:27.722Z,24.90
2019-06-26T20:43:56.097Z,24.50
2019-06-26T20:46:24.625Z,24.50
2019-06-26T20:48:53.065Z,24.70
2019-06-26T20:51:21.588Z,24.60
2019-06-26T20:53:50.124Z,24.50
2019-06-26T20:56:18.763Z,24.80
2019-06-26T20:58:47.299Z,25.10
2019-06-26T21:01:15.944Z,25.20
2019-06-26T21:03:44.623Z,25.20
2019-06-26T21:06:13.133Z,25.30
2019-06-26T21:08:41.612Z,25.30
2019-06-26T21:11:10.009Z,25.30
2019-06-26T21:13:38.538Z,25.40
2019-06-26T21:16:06.941Z,25.60
2019-06-26T21:18:37.736Z,25.80
2019-06-26T21:21:06.025Z,25.80
2019-06-26T21:23:34.486Z,25.30
2019-06-26T21:26:03.008Z,25.60
2019-06-26T21:28:31.441Z,25.80
2019-06-26T21:30:59.986Z,26.00
2019-06-26T21:33:28.661Z,25.90
2019-06-26T21:35:57.093Z,26.00
2019-06-26T21:38:25.597Z,26.20
2019-06-26T21:40:54.072Z,26.20
2019-06-26T21:43:22.591Z,25.90
2019-06-26T21:45:50.779Z,25.60
2019-06-26T21:48:19.358Z,25.80
2019-06-26T21:50:47.724Z,26.00
2019-06-26T21:53:16.282Z,26.10
2019-06-26T21:55:44.772Z,25.90
2019-06-26T21:58:13.027Z,25.90
2019-06-26T22:00:41.537Z,26.10
2019-06-26T22:03:09.776Z,26.20
2019-06-26T22:05:38.337Z,26.10
2019-06-26T22:08:06.818Z,26.00
2019-06-26T22:10:35.500Z,26.10
2019-06-26T22:13:03.943Z,25.80
2019-06-26T22:15:32.433Z,25.30
2019-06-26T22:18:00.940Z,25.00
2019-06-26T22:20:30.449Z,25.10
2019-06-26T22:22:58.873Z,25.40
2019-06-26T22:25:27.329Z,24.90
2019-06-26T22:27:55.765Z,25.20
2019-06-26T22:30:24.292Z,25.10
2019-06-26T22:32:52.618Z,25.30
2019-06-26T22:35:21.100Z,25.30
2019-06-26T22:37:49.613Z,25.10
2019-06-26T22:40:17.856Z,25.20
2019-06-26T22:42:46.311Z,25.40
2019-06-26T22:45:14.613Z,25.70
2019-06-26T22:47:42.921Z,25.70
2019-06-26T22:50:11.337Z,26.00
2019-06-26T22:52:39.828Z,25.70
2019-06-26T22:55:08.120Z,25.90
2019-06-26T22:57:36.576Z,25.80
2019-06-26T23:00:09.457Z,25.70
2019-06-26T23:02:37.887Z,25.80
2019-06-26T23:05:06.588Z,26.00
2019-06-26T23:07:34.982Z,26.20
2019-06-26T23:10:03.496Z,26.00
2019-06-26T23:12:32.005Z,26.00
2019-06-26T23:15:00.301Z,26.20
2019-06-26T23:17:28.719Z,26.20
2019-06-26T23:19:57.257Z,26.50
2019-06-26T23:22:26.969Z,26.80
2019-06-26T23:24:55.390Z,26.80
2019-06-26T23:27:23.845Z,26.80
2019-06-26T23:29:52.337Z,26.80
2019-06-26T23:32:20.801Z,26.80
2019-06-26T23:34:49.369Z,26.70
2019-06-26T23:37:17.841Z,26.80
2019-06-26T23:39:46.282Z,26.90
2019-06-26T23:42:14.819Z,27.20
2019-06-26T23:44:43.231Z,27.50
2019-06-26T23:47:11.681Z,27.80
2019-06-26T23:49:40.197Z,27.00
2019-06-26T23:52:08.677Z,26.40
2019-06-26T23:54:37.142Z,26.90
2019-06-26T23:57:05.625Z,27.00
2019-06-26T23:59:33.774Z,27.10
